Time;durP1;ratioP1;P1;durP2;ratioP2;P2;SDS_P1;SDS_P2;PMS_P1;PMS_P2;Temp;Humidity;BMP_temperature;BMP_pressure;BME280_temperature;BME280_humidity;BME280_pressure;Samples;Min_cycle;Max_cycle;Signal;HPM_P1;HPM_P2
2023/04/26 00:01:31;;;;;;;2.00;1.80;;;16.30;61.30;17.40;101029.00;;;;5028459;28;20179;-54
2023/04/26 00:03:57;;;;;;;1.70;1.60;;;16.30;61.30;17.40;101029.00;;;;5028192;28;20741;-52
2023/04/26 00:06:23;;;;;;;2.00;1.90;;;16.40;61.30;17.30;101033.00;;;;5028419;28;20676;-53
2023/04/26 00:08:48;;;;;;;1.70;1.60;;;16.30;61.30;17.30;101039.00;;;;5028120;28;20581;-52
2023/04/26 00:11:14;;;;;;;1.80;1.70;;;16.30;61.30;17.30;101036.00;;;;5028190;28;20174;-52
2023/04/26 00:13:40;;;;;;;1.90;1.80;;;16.30;61.40;17.30;101042.00;;;;5027753;28;20191;-54
2023/04/26 00:16:06;;;;;;;1.60;1.50;;;16.30;61.40;17.30;101035.00;;;;5027924;28;20179;-53
2023/04/26 00:18:31;;;;;;;2.10;1.90;;;16.30;61.30;17.10;101035.00;;;;5029021;28;20200;-52
2023/04/26 00:20:57;;;;;;;1.87;1.77;;;16.30;61.30;17.30;101035.00;;;;5047039;28;20198;-52
2023/04/26 00:23:23;;;;;;;1.50;1.40;;;16.30;61.30;17.20;101025.00;;;;5032865;28;20180;-52
2023/04/26 00:25:49;;;;;;;1.70;1.60;;;16.20;61.20;17.20;101035.00;;;;5030743;28;20206;-52
2023/04/26 00:28:15;;;;;;;1.70;1.60;;;16.20;61.30;17.20;101034.00;;;;5028829;28;20194;-52
2023/04/26 00:30:46;;;;;;;1.80;1.70;;;16.20;61.30;17.20;101027.00;;;;5030918;28;20658;-53
2023/04/26 00:33:12;;;;;;;1.80;1.70;;;16.20;61.30;17.20;101027.00;;;;5034087;28;20171;-53
2023/04/26 00:35:38;;;;;;;1.80;1.70;;;16.20;61.30;17.20;101029.00;;;;5033874;28;20197;-52
2023/04/26 00:38:03;;;;;;;1.70;1.60;;;16.20;61.30;17.10;101029.00;;;;5031764;28;20286;-52
2023/04/26 00:40:29;;;;;;;1.67;1.57;;;16.20;61.30;17.10;101030.00;;;;5030862;28;20205;-52
2023/04/26 00:42:58;;;;;;;1.80;1.70;;;16.10;61.20;17.10;101033.00;;;;5033751;28;20622;-54
2023/04/26 00:45:24;;;;;;;1.77;1.67;;;16.10;61.20;17.10;101026.00;;;;5033724;28;20185;-54
2023/04/26 00:47:50;;;;;;;1.80;1.70;;;16.10;61.20;17.10;101026.00;;;;5030530;28;20200;-54
2023/04/26 00:50:16;;;;;;;1.80;1.70;;;16.10;61.20;17.10;101019.00;;;;5032106;28;20257;-54
2023/04/26 00:52:42;;;;;;;1.70;1.60;;;16.10;61.20;17.10;101018.00;;;;5031657;28;20254;-54
2023/04/26 00:55:08;;;;;;;1.70;1.60;;;16.10;61.20;17.00;101014.00;;;;5030196;28;20182;-55
2023/04/26 00:57:34;;;;;;;1.90;1.80;;;16.10;61.20;17.00;101015.00;;;;5031424;28;20203;-52
2023/04/26 00:59:59;;;;;;;1.87;1.77;;;16.10;61.20;17.00;101014.00;;;;5031864;28;20206;-54
2023/04/26 01:02:25;;;;;;;1.70;1.60;;;16.00;61.10;17.00;101014.00;;;;5031814;28;20238;-53
2023/04/26 01:04:51;;;;;;;1.50;1.40;;;16.00;61.20;17.00;101013.00;;;;5029904;28;20190;-52
2023/04/26 01:07:17;;;;;;;1.80;1.70;;;16.00;61.20;17.00;101024.00;;;;5031655;28;20190;-52
2023/04/26 01:09:43;;;;;;;1.70;1.60;;;16.00;61.20;17.00;101020.00;;;;5022942;28;20287;-52
2023/04/26 01:12:09;;;;;;;2.00;1.80;;;16.00;61.20;16.90;101020.00;;;;5029809;28;20661;-54
2023/04/26 01:14:35;;;;;;;1.77;1.67;;;16.00;61.10;16.90;101023.00;;;;5029662;28;20171;-53
2023/04/26 01:17:02;;;;;;;1.70;1.60;;;15.90;60.90;16.90;101032.00;;;;5030377;28;20225;-53
2023/04/26 01:19:28;;;;;;;1.50;1.40;;;15.90;61.00;16.90;101036.00;;;;5031235;28;20195;-53
2023/04/26 01:21:54;;;;;;;2.00;1.60;;;15.90;61.10;16.90;101040.00;;;;5031202;28;20237;-53
2023/04/26 01:24:19;;;;;;;1.97;1.83;;;15.90;61.10;16.90;101033.00;;;;5031031;28;20178;-53
2023/04/26 01:26:45;;;;;;;1.90;1.80;;;15.90;61.10;16.90;101047.00;;;;5031007;28;20202;-53
2023/04/26 01:29:18;;;;;;;2.20;1.70;;;15.90;61.10;16.80;101036.00;;;;5030002;28;20213;-53
2023/04/26 01:31:45;;;;;;;1.80;1.70;;;15.90;61.10;16.80;101037.00;;;;5031651;28;20183;-53
2023/04/26 01:34:10;;;;;;;1.70;1.60;;;15.90;61.10;16.80;101043.00;;;;5031282;28;20216;-53
2023/04/26 01:36:36;;;;;;;1.70;1.60;;;15.90;61.10;16.80;101044.00;;;;5031281;28;20174;-53
2023/04/26 01:39:02;;;;;;;1.60;1.50;;;15.80;61.10;16.80;101033.00;;;;5031502;28;20198;-53
2023/04/26 01:41:28;;;;;;;2.00;1.80;;;15.80;61.00;16.80;101025.00;;;;5030844;28;20641;-52
2023/04/26 01:43:54;;;;;;;2.07;1.90;;;15.80;61.00;16.70;101028.00;;;;5030789;28;20186;-52
2023/04/26 01:46:20;;;;;;;1.60;1.50;;;15.80;61.10;16.70;101037.00;;;;5030870;28;20741;-53
2023/04/26 01:48:46;;;;;;;1.70;1.60;;;15.80;61.00;16.70;101015.00;;;;5028868;28;20219;-52
2023/04/26 01:51:12;;;;;;;1.60;1.50;;;15.80;61.10;16.70;101034.00;;;;5030836;28;20183;-53
2023/04/26 01:53:38;;;;;;;1.60;1.50;;;15.80;61.10;16.70;101031.00;;;;5030262;28;20183;-52
2023/04/26 01:56:04;;;;;;;1.70;1.60;;;15.70;60.90;16.70;101025.00;;;;5030517;28;20236;-53
2023/04/26 01:58:30;;;;;;;1.80;1.70;;;15.70;61.00;16.60;101026.00;;;;5030795;28;20285;-51
2023/04/26 02:01:03;;;;;;;1.80;1.70;;;15.70;61.00;16.60;101029.00;;;;5030673;28;20305;-52
2023/04/26 02:03:29;;;;;;;1.90;1.80;;;15.70;61.00;16.60;101008.00;;;;5021682;28;20190;-52
2023/04/26 02:05:55;;;;;;;1.53;1.43;;;15.70;61.00;16.60;101029.00;;;;5028911;28;20171;-53
2023/04/26 02:08:20;;;;;;;2.00;1.80;;;15.70;61.00;16.60;101033.00;;;;5030389;28;20206;-52
2023/04/26 02:10:46;;;;;;;1.80;1.70;;;15.70;61.00;16.60;101040.00;;;;5030527;28;20199;-53
2023/04/26 02:13:12;;;;;;;1.90;1.80;;;15.60;61.10;16.50;101038.00;;;;5030353;28;20234;-53
2023/04/26 02:15:37;;;;;;;1.60;1.50;;;15.60;61.40;16.50;101029.00;;;;5034763;28;20190;-53
2023/04/26 02:18:04;;;;;;;1.80;1.70;;;15.60;61.40;16.50;101038.00;;;;5045933;28;20210;-52
2023/04/26 02:20:29;;;;;;;2.20;1.70;;;15.60;61.40;16.50;101029.00;;;;5030885;28;20183;-53
2023/04/26 02:22:55;;;;;;;1.80;1.70;;;15.60;61.50;16.50;101034.00;;;;5032717;28;20178;-52
2023/04/26 02:25:21;;;;;;;1.50;1.50;;;15.60;61.50;16.50;101042.00;;;;5031607;28;20175;-52
2023/04/26 02:27:47;;;;;;;1.80;1.70;;;15.60;61.40;16.50;101037.00;;;;5032603;28;20596;-52
2023/04/26 02:30:12;;;;;;;1.93;1.80;;;15.60;61.30;16.40;101042.00;;;;5039695;28;20175;-52
2023/04/26 02:32:38;;;;;;;1.67;1.57;;;15.60;61.20;16.40;101046.00;;;;5031962;28;20179;-52
2023/04/26 02:35:04;;;;;;;1.77;1.67;;;15.50;61.10;16.40;101035.00;;;;5030034;28;20656;-52
2023/04/26 02:37:31;;;;;;;1.80;1.70;;;15.50;61.20;16.40;101037.00;;;;5033738;28;20248;-54
2023/04/26 02:39:57;;;;;;;1.83;1.70;;;15.50;61.20;16.40;101031.00;;;;5034857;28;20235;-53
2023/04/26 02:42:23;;;;;;;1.53;1.47;;;15.50;61.90;16.40;101028.00;;;;5035896;28;20189;-53
2023/04/26 02:44:49;;;;;;;1.80;1.70;;;15.50;61.10;16.40;101028.00;;;;5032512;28;20171;-53
2023/04/26 02:47:15;;;;;;;1.70;1.60;;;15.50;61.10;16.30;101023.00;;;;5030263;28;20175;-53
2023/04/26 02:49:41;;;;;;;2.00;1.80;;;15.40;61.00;16.30;101025.00;;;;5028211;28;20282;-52
2023/04/26 02:52:07;;;;;;;1.60;1.50;;;15.40;60.90;16.30;101029.00;;;;5029873;28;20890;-52
2023/04/26 02:54:32;;;;;;;1.70;1.60;;;15.40;61.00;16.30;101033.00;;;;5029586;28;20179;-52
2023/04/26 02:56:58;;;;;;;1.87;1.77;;;15.40;61.00;16.30;101016.00;;;;5029791;28;20194;-52
2023/04/26 02:59:24;;;;;;;2.13;1.80;;;15.40;60.90;16.30;101019.00;;;;5028961;28;20198;-51
2023/04/26 03:01:49;;;;;;;1.87;1.77;;;15.40;61.00;16.20;101016.00;;;;5029742;28;20175;-52
2023/04/26 03:04:16;;;;;;;1.60;1.50;;;15.30;60.90;16.20;101016.00;;;;5029684;28;20175;-52
2023/04/26 03:06:42;;;;;;;1.93;1.70;;;15.30;60.80;16.00;101010.00;;;;5029367;28;20203;-52
2023/04/26 03:09:07;;;;;;;1.60;1.50;;;15.30;60.80;16.20;101014.00;;;;5029026;28;20198;-52
2023/04/26 03:11:33;;;;;;;1.80;1.70;;;15.30;60.90;16.20;101016.00;;;;5031563;28;20262;-52
2023/04/26 03:13:59;;;;;;;1.80;1.70;;;15.30;60.90;16.20;101021.00;;;;5022804;28;20670;-53
2023/04/26 03:16:26;;;;;;;1.90;1.80;;;15.30;60.90;16.20;101019.00;;;;5029266;28;20790;-52
2023/04/26 03:18:53;;;;;;;1.73;1.60;;;15.20;60.80;16.20;101006.00;;;;5027727;28;20225;-52
2023/04/26 03:21:19;;;;;;;1.60;1.50;;;15.20;61.00;16.10;101009.00;;;;5027866;28;20170;-52
2023/04/26 03:23:45;;;;;;;1.70;1.60;;;15.10;61.10;16.10;101007.00;;;;5028824;28;20192;-52
2023/04/26 03:26:11;;;;;;;1.70;1.60;;;15.10;61.10;16.10;100990.00;;;;5029179;28;20570;-52
2023/04/26 03:28:37;;;;;;;1.80;1.70;;;15.10;61.20;16.00;101012.00;;;;5028728;28;20199;-52
2023/04/26 03:31:02;;;;;;;2.37;1.80;;;15.10;61.70;16.00;101006.00;;;;5028904;28;20210;-52
2023/04/26 03:33:29;;;;;;;3.77;1.70;;;15.10;62.10;16.00;101013.00;;;;5028826;28;20178;-52
2023/04/26 03:35:55;;;;;;;5.30;2.00;;;15.10;61.50;16.00;101011.00;;;;5028591;28;20214;-53
2023/04/26 03:38:22;;;;;;;11.20;2.27;;;15.10;61.40;16.00;101003.00;;;;5020770;28;20687;-52
2023/04/26 03:40:48;;;;;;;1.83;1.57;;;15.10;61.50;15.90;101003.00;;;;5027647;28;20182;-51
2023/04/26 03:43:14;;;;;;;1.97;1.70;;;15.10;61.30;15.90;101006.00;;;;5028797;28;20182;-52
2023/04/26 03:45:39;;;;;;;2.33;1.73;;;15.10;61.30;15.90;101000.00;;;;5028912;28;20214;-53
2023/04/26 03:48:05;;;;;;;3.70;1.90;;;15.10;61.10;15.90;101014.00;;;;5030067;28;20198;-52
2023/04/26 03:50:31;;;;;;;2.97;1.90;;;15.10;61.00;15.90;101005.00;;;;5030256;28;20197;-53
2023/04/26 03:52:57;;;;;;;2.30;1.90;;;15.10;60.80;15.90;101000.00;;;;5030105;28;20569;-52
2023/04/26 03:55:22;;;;;;;4.07;1.97;;;15.10;60.70;15.90;101002.00;;;;5029745;28;20174;-52
2023/04/26 03:57:48;;;;;;;3.90;1.90;;;15.00;60.50;15.80;101008.00;;;;5029861;28;20518;-52
2023/04/26 04:00:14;;;;;;;3.37;2.10;;;15.00;60.50;15.80;101013.00;;;;5029940;28;20182;-52
2023/04/26 04:02:40;;;;;;;2.77;2.27;;;15.00;60.30;15.80;101007.00;;;;5030082;28;20171;-51
2023/04/26 04:05:07;;;;;;;2.20;1.90;;;15.00;60.30;15.80;101004.00;;;;5029623;28;20167;-52
2023/04/26 04:07:33;;;;;;;2.60;2.10;;;14.90;60.10;15.80;101009.00;;;;5029642;28;20182;-52
2023/04/26 04:09:59;;;;;;;3.07;2.20;;;14.90;60.10;15.70;101015.00;;;;5029947;28;20201;-52
2023/04/26 04:12:25;;;;;;;3.33;2.30;;;14.90;60.00;15.70;101013.00;;;;5031669;28;20199;-52
2023/04/26 04:14:51;;;;;;;6.20;2.27;;;14.90;59.90;15.70;101013.00;;;;5034466;28;20240;-52
2023/04/26 04:17:17;;;;;;;3.13;2.13;;;14.90;60.00;15.70;101015.00;;;;5030697;28;20170;-51
2023/04/26 04:19:44;;;;;;;4.40;2.27;;;14.90;60.20;15.70;101011.00;;;;5031327;28;20190;-53
2023/04/26 04:22:10;;;;;;;8.27;2.47;;;14.90;60.10;15.70;101015.00;;;;5031345;28;20206;-56
2023/04/26 04:24:36;;;;;;;8.97;2.30;;;14.90;60.10;15.60;101010.00;;;;5030605;28;20266;-52
2023/04/26 04:27:02;;;;;;;11.07;2.70;;;14.80;60.00;15.60;101013.00;;;;5040235;28;20194;-52
2023/04/26 04:29:28;;;;;;;7.20;2.67;;;14.80;60.00;15.60;101012.00;;;;5034688;28;20737;-52
2023/04/26 04:31:54;;;;;;;7.47;2.10;;;14.80;60.10;15.60;101021.00;;;;5028547;28;20179;-51
2023/04/26 04:34:20;;;;;;;7.87;2.50;;;14.80;60.90;15.60;101010.00;;;;5028681;28;20179;-52
2023/04/26 04:36:46;;;;;;;6.17;2.30;;;14.80;60.20;15.50;101032.00;;;;5029025;28;20248;-52
2023/04/26 04:39:15;;;;;;;4.47;2.40;;;14.80;60.30;15.50;101038.00;;;;5027409;28;20289;-52
2023/04/26 04:41:48;;;;;;;6.43;2.50;;;14.80;60.30;15.50;101037.00;;;;5028464;28;20191;-52
2023/04/26 04:44:17;;;;;;;3.73;2.20;;;14.80;60.50;15.50;101036.00;;;;5027099;28;20183;-52
2023/04/26 04:46:43;;;;;;;6.13;2.60;;;14.80;60.60;15.50;101037.00;;;;5026436;28;20191;-51
2023/04/26 04:49:10;;;;;;;6.70;2.30;;;14.80;60.80;15.50;101030.00;;;;5028096;28;20575;-52
2023/04/26 04:51:36;;;;;;;3.13;2.20;;;14.80;61.10;15.50;101042.00;;;;5028964;28;20187;-53
2023/04/26 04:54:12;;;;;;;6.33;2.53;;;14.80;61.10;15.50;101031.00;;;;5020153;28;20183;-53
2023/04/26 04:56:37;;;;;;;3.60;2.40;;;14.70;61.90;15.50;101041.00;;;;5025694;28;20735;-52
2023/04/26 04:59:03;;;;;;;3.40;2.20;;;14.70;61.10;15.50;101042.00;;;;5027905;28;20203;-53
2023/04/26 05:01:32;;;;;;;2.93;2.10;;;14.60;61.10;15.50;101043.00;;;;5029283;28;20187;-52
2023/04/26 05:03:58;;;;;;;4.23;2.40;;;14.70;61.10;15.40;101038.00;;;;5027386;28;20259;-53
2023/04/26 05:06:26;;;;;;;4.83;2.23;;;14.70;61.10;15.40;101040.00;;;;5027959;28;20641;-52
2023/04/26 05:08:52;;;;;;;3.77;2.30;;;14.70;61.10;15.40;101038.00;;;;5028777;28;20203;-52
2023/04/26 05:11:18;;;;;;;3.17;2.20;;;14.60;60.90;15.40;101053.00;;;;5027090;28;20233;-53
2023/04/26 05:13:45;;;;;;;4.77;2.10;;;14.60;60.90;15.40;101060.00;;;;5026831;28;20669;-52
2023/04/26 05:16:10;;;;;;;3.73;2.17;;;14.60;60.90;15.40;101054.00;;;;5026339;28;20176;-53
2023/04/26 05:18:36;;;;;;;4.90;2.20;;;14.60;60.90;15.30;101064.00;;;;5027696;28;20229;-52
2023/04/26 05:21:02;;;;;;;2.40;2.20;;;14.60;60.90;15.30;101063.00;;;;5027628;28;20186;-52
2023/04/26 05:23:28;;;;;;;4.97;2.10;;;14.60;60.90;15.30;101053.00;;;;5030234;28;20183;-53
2023/04/26 05:25:54;;;;;;;2.53;2.00;;;14.60;60.90;15.30;101071.00;;;;5030699;28;20730;-53
2023/04/26 05:28:20;;;;;;;3.23;2.20;;;14.50;60.80;15.30;101063.00;;;;5032212;28;20199;-53
2023/04/26 05:30:46;;;;;;;3.40;2.20;;;14.60;60.90;15.30;101075.00;;;;5032162;28;20203;-54
2023/04/26 05:33:12;;;;;;;3.50;1.90;;;14.50;60.80;15.20;101071.00;;;;5032133;28;20175;-54
2023/04/26 05:35:38;;;;;;;2.60;2.03;;;14.50;60.80;15.20;101080.00;;;;5031597;28;20690;-53
2023/04/26 05:38:03;;;;;;;2.97;2.00;;;14.50;60.80;15.20;101072.00;;;;5030610;28;20225;-52
2023/04/26 05:40:31;;;;;;;4.03;2.00;;;14.50;60.80;15.20;101076.00;;;;5032219;28;20233;-53
2023/04/26 05:42:56;;;;;;;2.33;2.13;;;14.50;60.80;15.20;101084.00;;;;5031327;28;20182;-53
2023/04/26 05:45:22;;;;;;;2.80;2.00;;;14.50;60.80;15.20;101077.00;;;;5031245;28;20183;-52
2023/04/26 05:47:48;;;;;;;2.30;2.10;;;14.50;60.80;15.20;101078.00;;;;5030286;28;20688;-53
2023/04/26 05:50:14;;;;;;;2.40;2.00;;;14.50;60.80;15.20;101080.00;;;;5025091;28;20280;-53
2023/04/26 05:52:40;;;;;;;2.20;2.00;;;14.40;60.70;15.20;101082.00;;;;5016864;28;20206;-53
2023/04/26 05:55:06;;;;;;;2.37;1.93;;;14.40;60.70;15.10;101080.00;;;;5031570;28;20233;-53
2023/04/26 05:57:33;;;;;;;2.30;1.90;;;14.40;60.70;15.10;101091.00;;;;5031549;28;20193;-53
2023/04/26 05:59:59;;;;;;;2.40;2.20;;;14.40;60.70;15.10;101085.00;;;;5024915;28;20290;-54
2023/04/26 06:02:25;;;;;;;2.37;2.10;;;14.40;60.70;15.10;101103.00;;;;5032296;28;20187;-52
2023/04/26 06:04:51;;;;;;;2.17;1.93;;;14.40;61.10;15.10;101088.00;;;;5030249;28;20199;-52
2023/04/26 06:07:17;;;;;;;2.80;2.10;;;14.40;61.00;15.10;101080.00;;;;5036385;28;20183;-52
2023/04/26 06:09:43;;;;;;;3.13;2.07;;;14.40;61.50;15.10;101077.00;;;;5030402;28;20210;-52
2023/04/26 06:12:09;;;;;;;3.07;2.23;;;14.30;61.90;15.10;101091.00;;;;5031921;28;20229;-53
2023/04/26 06:14:34;;;;;;;3.13;2.20;;;14.30;62.20;15.00;101108.00;;;;5028690;28;20187;-53
2023/04/26 06:17:00;;;;;;;4.83;2.20;;;14.30;62.50;15.00;101112.00;;;;5031435;28;20183;-52
2023/04/26 06:19:26;;;;;;;2.37;2.17;;;14.30;62.70;15.00;101109.00;;;;5032579;28;20214;-53
2023/04/26 06:21:54;;;;;;;2.23;1.90;;;14.40;63.00;15.10;101111.00;;;;5035740;28;20186;-51
2023/04/26 06:24:20;;;;;;;2.67;2.07;;;14.40;63.00;15.10;101110.00;;;;5039878;28;20182;-51
2023/04/26 06:26:45;;;;;;;2.77;2.20;;;14.50;63.30;15.10;101113.00;;;;5034755;28;20203;-52
2023/04/26 06:29:11;;;;;;;3.80;2.20;;;14.50;63.00;15.20;101108.00;;;;5031572;28;20207;-52
2023/04/26 06:31:37;;;;;;;4.13;2.30;;;14.60;62.90;15.20;101122.00;;;;5031378;28;20198;-52
2023/04/26 06:34:03;;;;;;;2.67;2.20;;;14.70;62.80;15.30;101117.00;;;;5028240;28;20186;-52
2023/04/26 06:36:29;;;;;;;7.57;2.60;;;14.80;62.90;15.30;101118.00;;;;5023491;28;20175;-52
2023/04/26 06:38:55;;;;;;;4.70;2.30;;;14.90;63.00;15.40;101125.00;;;;5028650;28;20625;-51
2023/04/26 06:41:21;;;;;;;3.63;2.10;;;15.00;62.90;15.50;101115.00;;;;5030870;28;20194;-52
2023/04/26 06:43:47;;;;;;;7.07;2.50;;;15.20;63.00;15.60;101123.00;;;;5030692;28;20237;-52
2023/04/26 06:46:13;;;;;;;3.07;2.07;;;15.30;62.70;15.70;101117.00;;;;5028874;28;20201;-52
2023/04/26 06:48:39;;;;;;;6.60;2.40;;;15.40;62.80;15.80;101110.00;;;;5029667;28;20560;-53
2023/04/26 06:51:06;;;;;;;5.40;2.33;;;15.60;62.90;15.90;101116.00;;;;5036585;28;20171;-51
2023/04/26 06:53:32;;;;;;;6.73;2.20;;;15.70;62.30;16.00;101125.00;;;;5029746;28;20277;-52
2023/04/26 06:55:58;;;;;;;6.80;2.30;;;15.80;62.20;16.00;101115.00;;;;5022096;28;20171;-54
2023/04/26 06:58:23;;;;;;;4.00;2.20;;;15.90;62.30;16.10;101105.00;;;;5030296;28;20191;-54
2023/04/26 07:00:49;;;;;;;3.87;2.10;;;16.00;62.40;16.20;101112.00;;;;5030445;28;20672;-54
2023/04/26 07:03:15;;;;;;;3.23;2.20;;;16.10;63.10;16.30;101112.00;;;;5030543;28;20175;-52
2023/04/26 07:05:41;;;;;;;4.67;2.30;;;16.10;62.60;16.30;101104.00;;;;5030389;28;20179;-53
2023/04/26 07:08:07;;;;;;;4.97;2.27;;;16.10;62.90;16.40;101102.00;;;;5029829;28;20229;-56
2023/04/26 07:10:32;;;;;;;6.50;2.00;;;16.10;62.70;16.40;101108.00;;;;5030017;28;20266;-55
2023/04/26 07:12:59;;;;;;;4.00;2.20;;;16.20;62.70;16.50;101115.00;;;;5030052;28;20167;-56
2023/04/26 07:15:24;;;;;;;4.10;2.20;;;16.20;62.70;16.50;101119.00;;;;5028199;28;20542;-56
2023/04/26 07:17:50;;;;;;;4.03;2.13;;;16.20;62.70;16.50;101120.00;;;;5030173;28;20195;-56
2023/04/26 07:20:19;;;;;;;3.60;1.90;;;16.20;62.90;16.60;101121.00;;;;5021409;28;20171;-55
2023/04/26 07:22:45;;;;;;;2.93;2.13;;;16.20;63.10;16.60;101111.00;;;;5028605;28;20232;-56
2023/04/26 07:25:11;;;;;;;4.37;2.07;;;16.20;63.10;16.60;101113.00;;;;5029153;28;20673;-56
2023/04/26 07:27:37;;;;;;;3.10;2.17;;;16.20;63.10;16.60;101110.00;;;;5029705;28;20195;-55
2023/04/26 07:30:04;;;;;;;2.47;2.10;;;16.20;63.10;16.60;101110.00;;;;5029596;28;20806;-58
2023/04/26 07:32:29;;;;;;;2.50;2.10;;;16.20;63.10;16.60;101103.00;;;;5030232;28;20179;-55
2023/04/26 07:34:55;;;;;;;2.67;2.00;;;16.20;63.20;16.60;101110.00;;;;5029609;28;20182;-56
2023/04/26 07:37:21;;;;;;;3.10;2.00;;;16.20;63.20;16.60;101109.00;;;;5021599;28;20183;-55
2023/04/26 07:39:47;;;;;;;2.77;1.93;;;16.20;63.20;16.70;101109.00;;;;5028466;28;20198;-57
2023/04/26 07:42:13;;;;;;;2.20;1.90;;;16.20;63.30;16.70;101104.00;;;;5028856;28;20187;-56
2023/04/26 07:44:38;;;;;;;3.33;2.30;;;16.20;63.30;16.60;101103.00;;;;5028526;28;20190;-58
2023/04/26 07:47:04;;;;;;;2.37;2.10;;;16.20;63.30;16.70;101099.00;;;;5028459;28;20307;-56
2023/04/26 07:49:30;;;;;;;2.37;2.17;;;16.20;63.40;16.70;101107.00;;;;5030276;28;20201;-56
2023/04/26 07:51:57;;;;;;;2.40;2.20;;;16.10;63.40;16.70;101096.00;;;;5030279;28;20175;-57
2023/04/26 07:54:23;;;;;;;2.57;2.00;;;16.10;63.50;16.70;101106.00;;;;5030640;28;20262;-55
2023/04/26 07:56:49;;;;;;;2.00;1.90;;;16.10;63.50;16.70;101111.00;;;;5030494;28;20258;-56
2023/04/26 07:59:15;;;;;;;2.83;2.00;;;16.10;63.50;16.70;101105.00;;;;5030158;28;20222;-56
2023/04/26 08:01:41;;;;;;;2.07;1.93;;;16.10;63.50;16.70;101105.00;;;;5030161;28;20183;-56
2023/04/26 08:04:07;;;;;;;2.10;1.80;;;16.10;63.50;16.70;101107.00;;;;5029622;28;20175;-57
2023/04/26 08:06:32;;;;;;;2.03;1.90;;;16.10;63.50;16.70;101109.00;;;;5029894;28;20183;-55
2023/04/26 08:08:58;;;;;;;3.40;2.10;;;16.10;63.50;16.70;101105.00;;;;5039035;28;20234;-56
2023/04/26 08:11:24;;;;;;;2.57;2.10;;;16.10;63.60;16.70;101107.00;;;;5027148;28;20183;-56
2023/04/26 08:13:50;;;;;;;2.87;2.30;;;16.10;63.60;16.70;101099.00;;;;5030142;28;20277;-58
2023/04/26 08:16:15;;;;;;;2.20;2.00;;;16.10;63.70;16.60;101093.00;;;;5031852;28;20167;-56
2023/04/26 08:18:41;;;;;;;2.27;2.00;;;16.00;63.60;16.60;101095.00;;;;5030974;28;20214;-57
2023/04/26 08:21:07;;;;;;;1.90;1.80;;;16.10;63.70;16.60;101101.00;;;;5032156;28;20189;-55
2023/04/26 08:23:37;;;;;;;2.07;1.90;;;16.10;63.70;16.60;101102.00;;;;5042529;28;20175;-56
2023/04/26 08:26:03;;;;;;;4.43;2.30;;;16.00;63.60;16.60;101107.00;;;;5035750;28;20197;-56
2023/04/26 08:28:28;;;;;;;2.37;1.90;;;16.00;63.60;16.60;101101.00;;;;5028346;28;20202;-58
2023/04/26 08:30:54;;;;;;;2.20;2.00;;;16.00;63.70;16.60;101100.00;;;;5029794;28;20669;-56
2023/04/26 08:33:20;;;;;;;3.03;1.90;;;16.00;63.80;16.60;101093.00;;;;5029548;28;20171;-56
2023/04/26 08:35:46;;;;;;;1.90;1.80;;;16.00;63.80;16.60;101095.00;;;;5029499;28;20177;-57
2023/04/26 08:38:11;;;;;;;2.13;1.90;;;16.00;63.90;16.60;101101.00;;;;5029483;28;20282;-56
2023/04/26 08:40:37;;;;;;;2.60;2.10;;;16.00;63.90;16.60;101090.00;;;;5029428;28;20174;-56
2023/04/26 08:43:03;;;;;;;2.37;2.17;;;16.00;63.80;16.60;101099.00;;;;5028413;28;20193;-56
2023/04/26 08:45:29;;;;;;;2.30;2.10;;;16.00;63.90;16.60;101091.00;;;;5029316;28;20186;-56
2023/04/26 08:48:07;;;;;;;2.23;2.00;;;15.90;63.80;16.60;101096.00;;;;5028018;28;20198;-56
2023/04/26 08:50:33;;;;;;;2.00;1.90;;;15.90;63.90;16.60;101104.00;;;;5029450;28;20179;-56
2023/04/26 08:52:59;;;;;;;2.77;2.00;;;15.90;63.90;16.60;101099.00;;;;5027800;28;20182;-57
2023/04/26 08:55:24;;;;;;;2.10;2.00;;;15.90;63.90;16.60;101101.00;;;;5029859;28;20190;-56
2023/04/26 08:57:50;;;;;;;2.10;1.90;;;15.90;63.90;16.60;101109.00;;;;5029312;28;20693;-56
2023/04/26 09:00:17;;;;;;;1.80;1.70;;;15.90;64.00;16.60;101100.00;;;;5033393;28;20175;-56
2023/04/26 09:02:51;;;;;;;2.30;2.00;;;15.90;64.00;16.60;101103.00;;;;5032264;28;20174;-56
2023/04/26 09:05:22;;;;;;;2.20;1.97;;;15.90;64.00;16.60;101101.00;;;;5033073;28;20171;-57
2023/04/26 09:07:48;;;;;;;2.87;2.00;;;15.90;64.10;16.60;101105.00;;;;5033292;28;20203;-56
2023/04/26 09:10:18;;;;;;;2.20;2.00;;;15.90;64.10;16.60;101110.00;;;;5032051;28;20280;-56
2023/04/26 09:12:44;;;;;;;2.13;1.93;;;15.90;64.10;16.60;101096.00;;;;5032051;28;20179;-56
2023/04/26 09:15:10;;;;;;;2.00;1.90;;;15.90;64.00;16.60;101102.00;;;;5031549;28;20178;-56
2023/04/26 09:17:37;;;;;;;2.07;1.97;;;15.80;63.90;16.60;101105.00;;;;5033193;28;20672;-56
2023/04/26 09:20:26;;;;;;;2.23;1.90;;;15.90;64.10;16.60;101095.00;;;;5032238;28;20332;-57
2023/04/26 09:23:12;;;;;;;1.97;1.83;;;15.80;64.10;16.60;101102.00;;;;5032945;28;20187;-58
2023/04/26 09:25:38;;;;;;;2.93;2.20;;;15.90;64.10;16.60;101093.00;;;;5032709;28;20190;-56
2023/04/26 09:28:18;;;;;;;2.97;2.03;;;15.80;64.10;16.60;101095.00;;;;5032551;28;20195;-56
2023/04/26 09:30:43;;;;;;;2.30;2.10;;;15.80;64.10;16.60;101106.00;;;;5031715;28;20709;-55
2023/04/26 09:33:09;;;;;;;1.93;1.83;;;15.80;64.20;16.60;101101.00;;;;5032412;28;20171;-57
2023/04/26 09:35:40;;;;;;;2.00;1.90;;;15.80;64.10;16.60;101104.00;;;;5032457;28;20612;-59
2023/04/26 09:38:11;;;;;;;22.77;3.07;;;15.80;64.10;16.60;101102.00;;;;5031247;28;20803;-58
2023/04/26 09:40:48;;;;;;;18.40;3.00;;;15.80;64.30;16.60;101090.00;;;;5032436;28;20752;-54
2023/04/26 09:43:18;;;;;;;10.13;2.57;;;15.80;64.30;16.60;101090.00;;;;5031227;28;20596;-57
2023/04/26 09:45:50;;;;;;;7.60;2.30;;;15.80;64.40;16.60;101087.00;;;;5034027;28;20270;-56
2023/04/26 09:48:30;;;;;;;6.47;2.40;;;15.80;64.30;16.60;101087.00;;;;5033733;28;20266;-58
2023/04/26 09:51:02;;;;;;;9.73;2.40;;;15.90;64.40;16.60;101090.00;;;;5031704;28;20182;-56
2023/04/26 09:53:30;;;;;;;8.73;2.50;;;15.90;64.40;16.60;101090.00;;;;5031687;28;20175;-56
2023/04/26 09:56:07;;;;;;;6.20;2.30;;;15.80;64.20;16.60;101085.00;;;;5031367;28;20171;-56
2023/04/26 09:58:49;;;;;;;6.83;2.70;;;15.80;64.20;16.60;101085.00;;;;5031529;28;20270;-55
2023/04/26 10:01:16;;;;;;;4.83;2.20;;;15.80;64.30;16.60;101071.00;;;;5031533;28;20514;-56
2023/04/26 10:03:42;;;;;;;9.83;2.30;;;15.80;64.30;16.60;101077.00;;;;5031382;28;20195;-56
2023/04/26 10:06:08;;;;;;;5.63;2.20;;;15.80;64.30;16.70;101070.00;;;;5030892;28;20258;-56
2023/04/26 10:08:34;;;;;;;5.57;2.37;;;15.80;64.20;16.70;101068.00;;;;5030743;28;20234;-56
2023/04/26 10:11:03;;;;;;;4.70;2.23;;;15.80;64.20;16.70;101069.00;;;;5043319;28;20199;-55
2023/04/26 10:13:31;;;;;;;6.27;2.40;;;15.80;64.20;16.70;100978.00;;;;5031730;28;20653;-55
2023/04/26 10:15:56;;;;;;;7.53;2.40;;;15.80;64.20;16.70;101060.00;;;;5031371;28;20264;-55
2023/04/26 10:18:22;;;;;;;5.03;2.30;;;15.80;64.20;16.70;101064.00;;;;5031635;28;20198;-56
2023/04/26 10:20:51;;;;;;;4.53;2.33;;;15.80;64.30;16.70;101065.00;;;;5030689;28;20179;-55
2023/04/26 10:23:24;;;;;;;7.33;2.27;;;15.80;64.20;16.70;101068.00;;;;5039853;28;20183;-55
2023/04/26 10:25:50;;;;;;;4.33;2.10;;;15.80;64.20;16.70;101082.00;;;;5040483;28;20203;-56
2023/04/26 10:28:44;;;;;;;2.37;2.10;;;15.80;64.20;16.70;101068.00;;;;5031355;28;20222;-58
2023/04/26 10:31:10;;;;;;;3.07;2.30;;;15.80;64.30;16.70;101067.00;;;;5030776;28;20175;-55
2023/04/26 10:33:36;;;;;;;4.57;2.20;;;15.80;64.20;16.70;101057.00;;;;5029727;28;20564;-56
2023/04/26 10:36:12;;;;;;;2.80;1.93;;;15.80;64.20;16.70;101053.00;;;;5013091;28;20210;-55
2023/04/26 10:38:40;;;;;;;4.20;2.00;;;15.80;64.10;16.80;101053.00;;;;5029611;28;20267;-56
2023/04/26 10:41:34;;;;;;;4.67;2.33;;;15.90;64.20;16.80;101055.00;;;;5030235;28;20660;-57
2023/04/26 10:44:39;;;;;;;3.87;2.00;;;15.80;64.10;16.80;101050.00;;;;5026508;28;20190;-57
2023/04/26 10:47:40;;;;;;;2.67;1.90;;;15.90;64.20;16.80;101050.00;;;;5030516;28;20182;-57